Available data for KLBE from the past 2 hours
LATROBE/WESTMORL, PA
Metar
KLBE 210150Z 30006KT 10SM SKC M07/M12 A3048

01:50 UTC

Wind: 300° 6kt

Visibility: 10 SM

Sky:

Temp: -7 deg C / 19.4 deg F

Dewpoint: -12 deg C / 10.4 deg F

Pressure: 30.48 inHg

TAF
KLBE 202325Z 2100/2124 32007KT P6SM VCSH BKN040 FM210800 VRB03KT P6SM BKN030 FM211600 VRB03KT P6SM SCT030
Pirep (1)
ARP UAL665 4113N 08027W 0152 F320 M53 068/023 TB NONE SK CLEAR IC NONE RM B739 OV KYNG10010 SMOOOTH